Time;durP1;ratioP1;P1;durP2;ratioP2;P2;SDS_P1;SDS_P2;PMS_P1;PMS_P2;Temp;Humidity;BMP_temperature;BMP_pressure;BME280_temperature;BME280_humidity;BME280_pressure;Samples;Min_cycle;Max_cycle;Signal;HPM_P1;HPM_P2
2023/08/13 00:00:04;;;;;;;1.23;1.13;;;;;;;17.68;80.16;100009.88;5096922;28;20036;-65
2023/08/13 00:02:34;;;;;;;0.95;0.90;;;;;;;17.73;80.13;100000.28;5096586;28;20070;-65
2023/08/13 00:05:04;;;;;;;1.52;0.93;;;;;;;17.75;79.83;99996.78;5096829;28;20441;-65
2023/08/13 00:07:33;;;;;;;0.80;0.80;;;;;;;17.71;79.68;99999.44;5096785;28;20044;-65
2023/08/13 00:10:04;;;;;;;0.85;0.85;;;;;;;17.70;79.81;100001.22;5097052;28;20494;-65
2023/08/13 00:12:33;;;;;;;0.50;0.50;;;;;;;17.68;79.88;100009.88;5096625;28;20482;-64
2023/08/13 00:15:04;;;;;;;1.30;1.05;;;;;;;17.59;79.75;100007.53;5096328;28;20143;-64
2023/08/13 00:17:35;;;;;;;1.30;1.08;;;;;;;17.53;79.95;100012.81;5096373;28;20048;-66
2023/08/13 00:20:05;;;;;;;0.85;0.73;;;;;;;17.55;80.08;100018.78;5096331;28;20067;-65
2023/08/13 00:22:34;;;;;;;0.70;0.68;;;;;;;17.54;80.00;100022.28;5096553;28;20071;-66
2023/08/13 00:25:03;;;;;;;1.17;1.08;;;;;;;17.56;80.06;100017.91;5096159;28;20051;-65
2023/08/13 00:27:32;;;;;;;0.45;0.45;;;;;;;17.60;80.18;100006.63;5096442;28;20064;-65
2023/08/13 00:30:03;;;;;;;0.67;0.67;;;;;;;17.58;79.99;100013.56;5096086;28;20044;-65
2023/08/13 00:32:32;;;;;;;0.70;0.70;;;;;;;17.51;80.05;100004.22;5096086;28;20372;-65
2023/08/13 00:35:01;;;;;;;1.30;1.20;;;;;;;17.35;80.25;100014.03;5096053;28;20093;-66
2023/08/13 00:37:30;;;;;;;0.80;0.80;;;;;;;17.26;80.71;100009.97;5095959;28;20044;-65
2023/08/13 00:40:00;;;;;;;1.13;0.80;;;;;;;17.15;80.65;100027.41;5095931;28;20284;-66
2023/08/13 00:42:29;;;;;;;2.97;2.72;;;;;;;16.96;80.98;100020.97;5095881;28;20097;-65
2023/08/13 00:44:58;;;;;;;4.82;1.52;;;;;;;16.95;81.45;100023.56;5094534;28;20093;-65
2023/08/13 00:47:30;;;;;;;2.97;2.50;;;;;;;16.88;81.87;100028.00;5111168;28;20117;-66
2023/08/13 00:50:00;;;;;;;3.28;2.58;;;;;;;16.91;81.93;100017.63;5094296;28;20051;-66
2023/08/13 00:52:29;;;;;;;0.95;0.82;;;;;;;17.00;82.14;100025.16;5095740;28;20050;-66
2023/08/13 00:54:58;;;;;;;0.82;0.68;;;;;;;17.04;82.08;100029.34;5094625;28;20405;-66
2023/08/13 00:57:27;;;;;;;2.08;1.13;;;;;;;17.05;81.89;100031.06;5094582;28;20052;-66
2023/08/13 00:59:58;;;;;;;0.73;0.73;;;;;;;17.13;82.02;100026.56;5094250;28;20036;-66
2023/08/13 01:02:27;;;;;;;1.15;1.05;;;;;;;17.16;81.91;100029.09;5095745;28;20048;-66
2023/08/13 01:04:58;;;;;;;9.25;2.10;;;;;;;17.18;81.98;100032.50;5095340;28;20054;-65
2023/08/13 01:07:34;;;;;;;1.77;1.67;;;;;;;17.22;81.96;100025.53;5095352;28;20059;-64
2023/08/13 01:10:16;;;;;;;1.88;1.02;;;;;;;17.20;81.77;100020.41;5095999;28;20048;-65
2023/08/13 01:12:53;;;;;;;0.80;0.80;;;;;;;17.28;81.73;100018.50;5095568;28;20047;-66
2023/08/13 01:15:30;;;;;;;1.05;0.95;;;;;;;17.30;81.62;100026.19;5094048;28;20054;-66
2023/08/13 01:18:01;;;;;;;0.90;0.90;;;;;;;17.28;81.58;100028.81;5093924;28;20044;-66
2023/08/13 01:20:32;;;;;;;0.80;0.80;;;;;;;17.28;81.54;100028.81;5093870;28;20040;-65
2023/08/13 01:23:04;;;;;;;0.60;0.60;;;;;;;17.29;81.52;100038.28;5095057;28;20486;-65
2023/08/13 01:25:34;;;;;;;0.70;0.70;;;;;;;17.27;81.44;100037.47;5095289;28;20056;-66
2023/08/13 01:28:13;;;;;;;0.90;0.85;;;;;;;17.38;81.58;100034.63;5093833;28;20386;-63
2023/08/13 01:30:46;;;;;;;1.25;1.08;;;;;;;17.43;81.27;100031.06;5095262;28;20036;-66
2023/08/13 01:33:19;;;;;;;1.45;1.00;;;;;;;17.48;81.41;100027.53;5094870;28;20126;-64
2023/08/13 01:35:49;;;;;;;0.68;0.68;;;;;;;17.49;81.47;100029.25;5095188;28;20131;-65
2023/08/13 01:38:20;;;;;;;1.08;0.95;;;;;;;17.44;81.38;100030.16;5095034;28;20102;-65
2023/08/13 01:40:50;;;;;;;1.10;0.80;;;;;;;17.41;81.24;100025.09;5094693;28;20083;-65
2023/08/13 01:43:19;;;;;;;1.27;1.08;;;;;;;17.46;81.33;100021.56;5110404;28;20048;-65
2023/08/13 01:45:48;;;;;;;0.60;0.60;;;;;;;17.48;81.13;100014.63;5093409;28;20047;-65
2023/08/13 01:48:17;;;;;;;1.35;1.25;;;;;;;17.49;81.11;100017.19;5110387;28;20052;-66
2023/08/13 01:50:46;;;;;;;0.60;0.60;;;;;;;17.50;80.94;100013.69;5093313;28;20042;-65
2023/08/13 01:53:15;;;;;;;0.80;0.77;;;;;;;17.50;80.93;100012.84;5094524;28;20127;-65
2023/08/13 01:55:46;;;;;;;1.17;1.02;;;;;;;17.43;81.04;100007.84;5094631;28;20440;-65
2023/08/13 01:58:16;;;;;;;0.55;0.55;;;;;;;17.37;81.07;100002.81;5093233;28;20405;-65
2023/08/13 02:00:44;;;;;;;1.37;0.80;;;;;;;17.36;81.24;100008.88;5092247;28;20047;-65
2023/08/13 02:03:13;;;;;;;1.17;0.77;;;;;;;17.34;81.43;100007.22;5093420;28;20494;-65
2023/08/13 02:05:42;;;;;;;0.87;0.87;;;;;;;17.37;81.45;100013.13;5094211;28;20040;-65
2023/08/13 02:08:11;;;;;;;0.40;0.40;;;;;;;17.34;81.41;100008.06;5110029;28;20124;-65
2023/08/13 02:10:40;;;;;;;0.80;0.80;;;;;;;17.31;81.55;100007.28;5093007;28;20093;-66
2023/08/13 02:13:11;;;;;;;0.40;0.40;;;;;;;17.30;81.63;100011.56;5094424;28;20036;-66
2023/08/13 02:15:40;;;;;;;1.20;0.98;;;;;;;17.26;81.77;100004.81;5110284;28;20439;-66
2023/08/13 02:18:09;;;;;;;1.03;1.03;;;;;;;17.26;81.83;100001.38;5093989;28;20123;-65
2023/08/13 02:20:38;;;;;;;0.95;0.95;;;;;;;17.23;81.93;99994.53;5094220;28;20044;-65
2023/08/13 02:23:07;;;;;;;0.60;0.60;;;;;;;17.26;81.93;99993.63;5094298;28;20064;-65
2023/08/13 02:25:37;;;;;;;0.65;0.60;;;;;;;17.29;81.95;99994.41;5094226;28;20493;-65
2023/08/13 02:28:06;;;;;;;0.88;0.73;;;;;;;17.28;81.76;99992.69;5093832;28;20067;-65
2023/08/13 02:30:39;;;;;;;0.68;0.68;;;;;;;17.29;81.78;99997.00;5093072;28;20461;-66
2023/08/13 02:33:08;;;;;;;0.98;0.88;;;;;;;17.25;81.93;99991.94;5093849;28;20044;-66
2023/08/13 02:35:37;;;;;;;0.75;0.75;;;;;;;17.24;81.95;99993.66;5094126;28;20433;-66
2023/08/13 02:38:07;;;;;;;0.70;0.70;;;;;;;17.27;82.02;99997.91;5093685;28;20044;-65
2023/08/13 02:40:36;;;;;;;0.55;0.55;;;;;;;17.30;81.88;99998.69;5092513;28;20051;-65
2023/08/13 02:43:05;;;;;;;1.03;0.93;;;;;;;17.25;81.84;100003.09;5093770;28;20075;-65
2023/08/13 02:45:34;;;;;;;0.60;0.60;;;;;;;17.28;81.87;99997.00;5093445;28;20060;-65
2023/08/13 02:48:05;;;;;;;0.80;0.80;;;;;;;17.23;82.01;99999.69;5093925;28;20050;-65
2023/08/13 02:50:34;;;;;;;1.02;0.90;;;;;;;17.24;81.90;100014.31;5093650;28;20044;-65
2023/08/13 02:53:03;;;;;;;6.10;1.93;;;;;;;17.25;82.20;100012.59;5093612;28;20040;-66
2023/08/13 02:55:32;;;;;;;2.70;1.70;;;;;;;17.20;82.02;100010.09;5092675;28;20028;-66
2023/08/13 02:58:00;;;;;;;0.63;0.63;;;;;;;17.17;82.18;100015.31;5093779;28;20470;-65
2023/08/13 03:00:39;;;;;;;0.95;0.88;;;;;;;17.20;82.27;100015.25;5093435;28;20113;-65
2023/08/13 03:03:10;;;;;;;1.08;0.98;;;;;;;17.17;82.05;100015.31;5093519;28;20094;-64
2023/08/13 03:05:39;;;;;;;1.85;1.15;;;;;;;17.20;82.42;100015.25;5093526;28;20044;-64
2023/08/13 03:08:07;;;;;;;0.43;0.43;;;;;;;17.20;82.34;100015.25;5093745;28;20066;-64
2023/08/13 03:10:36;;;;;;;0.57;0.57;;;;;;;17.19;82.32;100008.41;5093598;28;20039;-64
2023/08/13 03:13:05;;;;;;;0.60;0.60;;;;;;;17.22;82.24;100002.31;5113491;28;20499;-65
2023/08/13 03:15:34;;;;;;;0.63;0.63;;;;;;;17.18;82.16;100003.28;5096366;28;20036;-65
2023/08/13 03:18:04;;;;;;;0.60;0.60;;;;;;;17.13;82.15;99998.19;5097491;28;20097;-64
2023/08/13 03:20:37;;;;;;;0.60;0.60;;;;;;;17.06;82.30;99999.22;5097492;28;20052;-64
2023/08/13 03:23:06;;;;;;;1.75;1.25;;;;;;;16.91;82.13;99999.56;5096841;28;20479;-64
2023/08/13 03:25:35;;;;;;;;;;;;;;;16.83;82.38;99996.28;5097133;28;20122;-64
2023/08/13 03:28:05;;;;;;;0.90;0.85;;;;;;;16.70;82.75;100005.16;5113027;28;19924;-64
2023/08/13 03:30:34;;;;;;;0.63;0.60;;;;;;;16.69;83.00;100006.91;5096105;28;20148;-66
2023/08/13 03:33:03;;;;;;;0.47;0.47;;;;;;;16.63;83.03;99998.41;5096294;28;20269;-66
2023/08/13 03:35:36;;;;;;;1.50;1.40;;;;;;;16.65;83.11;99988.97;5096022;28;20040;-66
2023/08/13 03:38:07;;;;;;;0.85;0.82;;;;;;;16.58;83.45;99987.38;5097500;28;20661;-66
2023/08/13 03:40:38;;;;;;;1.35;1.25;;;;;;;16.47;83.67;99989.28;5096941;28;20040;-65
2023/08/13 03:43:07;;;;;;;0.77;0.77;;;;;;;16.47;83.39;99991.84;5096429;28;20493;-66
2023/08/13 03:45:36;;;;;;;1.00;0.90;;;;;;;16.55;83.58;99997.75;5096726;28;20068;-65
2023/08/13 03:48:05;;;;;;;0.67;0.67;;;;;;;16.59;83.34;99999.38;5097219;28;20048;-65
2023/08/13 03:50:34;;;;;;;0.60;0.60;;;;;;;16.58;83.62;100002.84;5096792;28;20269;-65
2023/08/13 03:53:03;;;;;;;1.00;0.93;;;;;;;16.63;83.84;99998.41;5112614;28;20036;-64
2023/08/13 03:55:34;;;;;;;0.82;0.70;;;;;;;16.62;83.59;99996.75;5095550;28;20497;-65
2023/08/13 03:58:04;;;;;;;1.15;1.05;;;;;;;16.65;84.01;99994.94;5095560;28;20123;-65
2023/08/13 04:00:33;;;;;;;0.80;0.80;;;;;;;16.69;83.61;99990.59;5096633;28;20492;-66
2023/08/13 04:03:03;;;;;;;0.80;0.67;;;;;;;16.78;83.59;99995.53;5096916;28;20067;-65
2023/08/13 04:05:52;;;;;;;;;;;;;;;16.83;83.50;99988.56;5096451;28;20264;-63
2023/08/13 04:08:21;;;;;;;0.50;0.50;;;;;;;16.87;83.44;99995.34;5095374;28;20001;-64
2023/08/13 04:10:53;;;;;;;;;;;;;;;16.85;83.11;100001.41;5096930;28;20059;-65
2023/08/13 04:13:22;;;;;;;0.63;0.63;;;;;;;16.89;83.23;100001.34;5112288;28;19959;-67
2023/08/13 04:15:50;;;;;;;0.50;0.50;;;;;;;16.93;83.13;100008.13;5096453;28;20084;-66
2023/08/13 04:18:20;;;;;;;;;;;;;;;16.96;83.23;100004.63;5095569;28;20136;-66
2023/08/13 04:20:51;;;;;;;0.70;0.70;;;;;;;17.01;83.06;100008.78;5096259;28;19928;-66
2023/08/13 04:23:19;;;;;;;1.60;1.40;;;;;;;17.10;83.04;100005.19;5094277;28;20040;-64
2023/08/13 04:25:50;;;;;;;0.43;0.43;;;;;;;17.18;82.65;100011.84;5096225;28;20055;-66
2023/08/13 04:28:20;;;;;;;1.20;0.85;;;;;;;17.24;82.58;100016.88;5096232;28;20040;-65
2023/08/13 04:30:50;;;;;;;1.75;0.82;;;;;;;17.30;82.67;100021.91;5096016;28;20139;-65
2023/08/13 04:33:18;;;;;;;;;;;;;;;17.37;82.36;100013.13;5095319;28;20052;-66
2023/08/13 04:35:53;;;;;;;3.50;1.40;;;;;;;17.35;82.35;100014.03;5095434;28;19927;-66
2023/08/13 04:38:26;;;;;;;1.73;1.13;;;;;;;17.34;82.43;100002.06;5095979;28;20129;-66
2023/08/13 04:40:59;;;;;;;1.50;1.00;;;;;;;17.26;82.67;100015.13;5095895;28;20047;-66
2023/08/13 04:43:29;;;;;;;1.10;1.00;;;;;;;17.20;83.02;100022.16;5094665;28;20040;-65
2023/08/13 04:45:58;;;;;;;1.90;1.63;;;;;;;17.26;83.15;100028.03;5095821;28;20083;-65
2023/08/13 04:48:41;;;;;;;2.05;1.83;;;;;;;17.35;82.66;100020.06;5096073;28;20465;-65
2023/08/13 04:51:16;;;;;;;1.30;1.17;;;;;;;17.37;83.30;100018.28;5094888;28;20064;-65
2023/08/13 04:53:46;;;;;;;1.02;0.93;;;;;;;17.46;83.38;100031.88;5094768;28;20048;-65
2023/08/13 04:56:15;;;;;;;1.10;1.00;;;;;;;17.54;83.34;100025.69;5094751;28;20047;-66
2023/08/13 04:58:46;;;;;;;1.08;0.95;;;;;;;17.66;83.15;100016.81;5095621;28;20040;-66
2023/08/13 05:01:15;;;;;;;1.23;1.13;;;;;;;17.79;82.90;100025.94;5094349;28;20123;-65
2023/08/13 05:03:49;;;;;;;1.50;1.38;;;;;;;17.91;82.76;100020.47;5094430;28;20097;-65
2023/08/13 05:06:20;;;;;;;0.65;0.65;;;;;;;18.01;82.18;100022.81;5095443;28;20048;-66
2023/08/13 05:08:49;;;;;;;0.57;0.57;;;;;;;18.11;82.00;100031.16;5094528;28;20059;-66
2023/08/13 05:11:18;;;;;;;0.77;0.77;;;;;;;18.13;81.78;100034.56;5095634;28;20482;-66
2023/08/13 05:13:50;;;;;;;0.57;0.57;;;;;;;18.17;81.54;100033.56;5095210;28;20052;-66
2023/08/13 05:16:20;;;;;;;1.02;0.95;;;;;;;18.22;81.46;100031.72;5095520;28;20052;-65
2023/08/13 05:18:52;;;;;;;1.65;0.77;;;;;;;18.32;81.26;100038.34;5095786;28;20051;-65
2023/08/13 05:21:21;;;;;;;1.90;1.75;;;;;;;18.43;81.19;100040.63;5095509;28;20135;-65
2023/08/13 05:23:50;;;;;;;1.33;1.05;;;;;;;18.51;80.99;100049.94;5095304;28;20097;-65
2023/08/13 05:26:19;;;;;;;0.63;0.63;;;;;;;18.58;80.66;100041.13;5095119;28;20130;-64
2023/08/13 05:28:50;;;;;;;0.65;0.65;;;;;;;18.73;80.60;100040.69;5093800;28;20032;-65
2023/08/13 05:31:19;;;;;;;0.90;0.77;;;;;;;18.87;80.24;100039.44;5093836;28;20120;-65
2023/08/13 05:33:47;;;;;;;0.85;0.63;;;;;;;18.93;79.92;100036.69;5095189;28;20036;-65
2023/08/13 05:36:17;;;;;;;1.15;1.05;;;;;;;19.06;79.50;100048.38;5095107;28;20044;-66
2023/08/13 05:38:45;;;;;;;0.73;0.73;;;;;;;19.11;79.07;100043.91;5093599;28;20037;-66
2023/08/13 05:41:14;;;;;;;0.73;0.73;;;;;;;19.20;78.91;100043.63;5093463;28;20051;-65
2023/08/13 05:43:43;;;;;;;1.70;0.95;;;;;;;19.32;78.73;100048.44;5077083;28;20436;-65
2023/08/13 05:46:14;;;;;;;0.52;0.52;;;;;;;19.43;78.25;100046.44;5093236;28;20052;-66
2023/08/13 05:48:43;;;;;;;0.90;0.70;;;;;;;19.46;78.20;100037.72;5093478;28;20044;-65
2023/08/13 05:51:13;;;;;;;0.57;0.57;;;;;;;19.54;77.79;100041.75;5094575;28;20036;-66
2023/08/13 05:53:42;;;;;;;0.60;0.60;;;;;;;19.60;77.52;100038.97;5094509;28;20068;-64
2023/08/13 05:56:11;;;;;;;0.73;0.73;;;;;;;19.75;77.04;100041.06;5094522;28;20043;-65
2023/08/13 05:58:40;;;;;;;0.68;0.68;;;;;;;19.88;76.67;100042.38;5094701;28;20043;-65
2023/08/13 06:01:08;;;;;;;1.35;1.10;;;;;;;20.03;76.34;100036.66;5094271;28;20490;-65
2023/08/13 06:03:39;;;;;;;0.85;0.80;;;;;;;20.08;75.60;100034.75;5094374;28;20393;-66
2023/08/13 06:06:09;;;;;;;1.02;0.85;;;;;;;20.19;75.23;100041.34;5094641;28;20516;-64
2023/08/13 06:08:38;;;;;;;0.50;0.50;;;;;;;20.33;75.38;100042.59;5094300;28;20078;-65
2023/08/13 06:11:06;;;;;;;0.90;0.90;;;;;;;20.49;74.92;100042.91;5094278;28;20051;-66
2023/08/13 06:13:38;;;;;;;10.38;1.73;;;;;;;20.73;74.55;100042.03;5094536;28;20036;-67
2023/08/13 06:16:08;;;;;;;0.43;0.43;;;;;;;20.84;73.89;100039.88;5094264;28;20046;-65
2023/08/13 06:18:37;;;;;;;0.82;0.82;;;;;;;20.91;73.56;100054.31;5094187;28;20055;-65
2023/08/13 06:21:07;;;;;;;0.82;0.82;;;;;;;20.92;73.45;100050.84;5093950;28;20136;-64
2023/08/13 06:23:36;;;;;;;0.57;0.57;;;;;;;20.94;73.39;100046.44;5094034;28;20520;-66
2023/08/13 06:26:05;;;;;;;0.43;0.43;;;;;;;20.98;73.67;100050.59;5093975;28;20062;-66
2023/08/13 06:28:35;;;;;;;0.50;0.50;;;;;;;21.00;73.20;100059.19;5093987;28;20059;-65
2023/08/13 06:31:06;;;;;;;0.88;0.88;;;;;;;21.01;72.93;100050.50;5094148;28;20035;-65
2023/08/13 06:33:35;;;;;;;0.40;0.40;;;;;;;21.03;72.69;100048.69;5094196;28;20048;-66
2023/08/13 06:36:06;;;;;;;0.88;0.85;;;;;;;21.08;73.02;100052.00;5093808;28;20048;-66
2023/08/13 06:38:36;;;;;;;1.05;0.93;;;;;;;21.13;73.03;100052.66;5093798;28;20040;-66
2023/08/13 06:41:05;;;;;;;3.83;0.82;;;;;;;21.22;72.87;100060.09;5094046;28;20122;-66
2023/08/13 06:43:34;;;;;;;;;;;;;;;21.27;72.95;100057.31;5094677;28;20101;-65
2023/08/13 06:46:04;;;;;;;0.97;0.87;;;;;;;21.36;72.95;100063.00;5092940;28;19927;-66
2023/08/13 06:48:38;;;;;;;0.80;0.80;;;;;;;21.46;72.87;100063.50;5093967;28;20273;-66
2023/08/13 06:51:11;;;;;;;0.40;0.40;;;;;;;21.48;72.38;100060.84;5093700;28;20493;-65
2023/08/13 06:53:41;;;;;;;6.30;1.60;;;;;;;21.51;72.16;100060.72;5093625;28;20055;-65
2023/08/13 06:56:09;;;;;;;1.15;0.98;;;;;;;21.52;71.50;100062.44;5093644;28;20044;-64
2023/08/13 06:58:38;;;;;;;1.08;0.70;;;;;;;21.58;71.44;100056.97;5093519;28;20051;-65
2023/08/13 07:01:07;;;;;;;2.05;1.52;;;;;;;21.61;71.47;100060.31;5093793;28;20131;-64
2023/08/13 07:03:36;;;;;;;3.85;1.85;;;;;;;21.73;71.33;100061.56;5109208;28;20037;-65
2023/08/13 07:06:05;;;;;;;1.13;1.03;;;;;;;21.78;71.08;100062.22;5093420;28;20547;-66
2023/08/13 07:08:36;;;;;;;0.57;0.57;;;;;;;21.82;71.09;100058.59;5093711;28;20043;-64
2023/08/13 07:11:04;;;;;;;1.02;0.73;;;;;;;21.90;71.01;100069.56;5093459;28;20475;-64
2023/08/13 07:13:33;;;;;;;0.63;0.63;;;;;;;21.94;70.88;100065.94;5093368;28;20043;-66
2023/08/13 07:16:02;;;;;;;0.85;0.85;;;;;;;22.03;70.40;100069.00;5093740;28;20040;-64
2023/08/13 07:18:32;;;;;;;1.50;1.40;;;;;;;22.13;70.48;100059.06;5093950;28;20066;-64
2023/08/13 07:21:01;;;;;;;0.50;0.50;;;;;;;22.19;70.04;100055.38;5093391;28;20036;-63
2023/08/13 07:23:30;;;;;;;0.60;0.60;;;;;;;22.29;70.30;100057.50;5093201;28;20044;-66
2023/08/13 07:26:00;;;;;;;1.13;1.05;;;;;;;22.35;70.44;100057.25;5091970;28;20050;-66
2023/08/13 07:28:29;;;;;;;1.08;0.98;;;;;;;22.39;69.95;100058.81;5093624;28;20043;-66
2023/08/13 07:30:58;;;;;;;0.80;0.80;;;;;;;22.46;69.31;100060.22;5093701;28;20410;-66
2023/08/13 07:33:27;;;;;;;0.60;0.60;;;;;;;22.54;69.10;100054.69;5093273;28;20120;-65
2023/08/13 07:35:56;;;;;;;1.27;1.05;;;;;;;22.58;68.67;100046.69;5093439;28;20044;-66
2023/08/13 07:38:25;;;;;;;0.50;0.50;;;;;;;22.65;68.90;100048.13;5093176;28;20439;-65
2023/08/13 07:40:55;;;;;;;0.93;0.75;;;;;;;22.74;68.78;100043.44;5093100;28;20040;-66
2023/08/13 07:43:25;;;;;;;0.75;0.73;;;;;;;22.79;68.14;100057.09;5093049;28;20482;-65
2023/08/13 07:45:54;;;;;;;0.77;0.77;;;;;;;22.84;67.97;100047.34;5092888;28;20052;-67
2023/08/13 07:48:23;;;;;;;0.75;0.73;;;;;;;22.87;67.63;100044.56;5093505;28;20036;-66
2023/08/13 07:50:53;;;;;;;0.88;0.73;;;;;;;22.88;67.25;100044.53;5093108;28;20048;-65
2023/08/13 07:53:21;;;;;;;0.98;0.80;;;;;;;22.94;66.89;100040.81;5093294;28;20524;-66
2023/08/13 07:55:50;;;;;;;1.38;0.70;;;;;;;23.07;67.46;100052.34;5093329;28;20501;-66
2023/08/13 07:58:19;;;;;;;0.85;0.82;;;;;;;23.16;67.62;100057.09;5093790;28;20047;-65
2023/08/13 08:00:50;;;;;;;1.25;1.02;;;;;;;23.23;66.83;100050.69;5096689;28;20101;-65
2023/08/13 08:03:19;;;;;;;1.52;0.88;;;;;;;23.32;66.26;100047.69;5096584;28;20085;-66
2023/08/13 08:05:49;;;;;;;4.07;2.10;;;;;;;23.35;65.80;100052.78;5096509;28;20097;-66
2023/08/13 08:08:18;;;;;;;1.20;0.90;;;;;;;23.39;65.66;100058.69;5096897;28;20055;-66
2023/08/13 08:10:47;;;;;;;0.57;0.57;;;;;;;23.48;65.43;100053.91;5096478;28;20040;-65
2023/08/13 08:13:15;;;;;;;1.13;1.02;;;;;;;23.52;65.21;100052.81;5096439;28;20036;-66
2023/08/13 08:15:44;;;;;;;1.10;1.00;;;;;;;23.62;65.11;100050.63;5096462;28;20036;-65
2023/08/13 08:18:14;;;;;;;0.80;0.80;;;;;;;23.68;64.86;100051.16;5096346;28;20044;-65
2023/08/13 08:20:43;;;;;;;2.15;1.45;;;;;;;23.81;64.94;100052.25;5096619;28;20456;-66
2023/08/13 08:23:13;;;;;;;0.60;0.60;;;;;;;23.95;65.59;100049.81;5096119;28;20044;-66
2023/08/13 08:25:44;;;;;;;0.65;0.65;;;;;;;24.00;65.17;100052.19;5096820;28;20478;-66
2023/08/13 08:28:13;;;;;;;1.17;0.77;;;;;;;24.06;64.68;100051.06;5096475;28;20078;-66
2023/08/13 08:30:45;;;;;;;1.23;0.88;;;;;;;24.08;64.22;100049.25;5096375;28;20379;-66
2023/08/13 08:33:16;;;;;;;1.20;1.08;;;;;;;24.14;63.61;100054.16;5096025;28;20084;-66
2023/08/13 08:35:45;;;;;;;0.43;0.43;;;;;;;24.09;62.72;100056.16;5096102;28;20044;-66
2023/08/13 08:38:14;;;;;;;1.02;0.93;;;;;;;24.19;63.18;100062.59;5096026;28;20416;-66
2023/08/13 08:40:44;;;;;;;0.80;0.75;;;;;;;24.29;62.93;100053.38;5095949;28;20043;-66
2023/08/13 08:43:15;;;;;;;0.77;0.70;;;;;;;24.37;63.15;100046.84;5096004;28;20136;-66
2023/08/13 08:45:45;;;;;;;0.60;0.60;;;;;;;24.57;63.01;100051.06;5095850;28;20044;-65
2023/08/13 08:48:17;;;;;;;0.40;0.40;;;;;;;24.81;62.48;100046.34;5095866;28;20047;-65
2023/08/13 08:50:46;;;;;;;0.40;0.40;;;;;;;25.01;61.49;100043.50;5095835;28;20482;-66
2023/08/13 08:53:15;;;;;;;;;;;;;;;25.18;61.37;100035.56;5096064;28;20052;-65
2023/08/13 08:55:45;;;;;;;0.70;0.65;;;;;;;25.39;60.62;100038.78;5094827;28;19956;-64
2023/08/13 08:58:14;;;;;;;1.90;1.10;;;;;;;25.44;58.63;100031.50;5095575;28;20044;-65
2023/08/13 09:00:43;;;;;;;0.50;0.50;;;;;;;25.49;57.68;100032.13;5095598;28;20119;-65
2023/08/13 09:03:12;;;;;;;0.57;0.57;;;;;;;25.60;57.50;100038.44;5095352;28;20040;-66
2023/08/13 09:05:43;;;;;;;0.77;0.77;;;;;;;25.82;57.58;100022.38;5095473;28;20048;-64
2023/08/13 09:08:13;;;;;;;0.90;0.80;;;;;;;25.83;56.34;100013.59;5095732;28;20402;-66
2023/08/13 09:10:44;;;;;;;0.70;0.70;;;;;;;25.87;56.23;100009.88;5095309;28;20051;-66
2023/08/13 09:13:13;;;;;;;0.55;0.55;;;;;;;25.95;54.54;100016.34;5095360;28;20051;-66
2023/08/13 09:15:45;;;;;;;0.45;0.45;;;;;;;26.08;54.38;100013.88;5095217;28;20040;-65
2023/08/13 09:18:14;;;;;;;0.40;0.40;;;;;;;26.15;53.38;100010.00;5095235;28;20131;-64
2023/08/13 09:20:49;;;;;;;1.17;0.90;;;;;;;26.24;53.29;100006.81;5095440;28;20066;-66
2023/08/13 09:23:22;;;;;;;0.50;0.50;;;;;;;26.36;52.29;100013.94;5095046;28;20505;-66
2023/08/13 09:25:54;;;;;;;0.50;0.50;;;;;;;26.35;52.03;100012.25;5095371;28;20066;-65
2023/08/13 09:28:23;;;;;;;0.73;0.73;;;;;;;26.37;52.39;100010.38;5094965;28;20048;-65
2023/08/13 09:30:52;;;;;;;0.65;0.57;;;;;;;26.42;52.13;100010.94;5095015;28;20050;-67
2023/08/13 09:33:21;;;;;;;0.80;0.70;;;;;;;26.55;53.02;100014.50;5095206;28;20442;-67
2023/08/13 09:35:53;;;;;;;2.55;1.55;;;;;;;26.59;53.22;100010.75;5094277;28;20048;-66
2023/08/13 09:38:21;;;;;;;0.43;0.43;;;;;;;26.72;52.66;100015.25;5095096;28;20040;-65
2023/08/13 09:40:51;;;;;;;0.73;0.73;;;;;;;26.81;53.05;100010.31;5095294;28;20036;-66
2023/08/13 09:43:25;;;;;;;0.98;0.77;;;;;;;26.91;52.56;100011.41;5094663;28;20040;-65
2023/08/13 09:46:01;;;;;;;0.50;0.50;;;;;;;27.03;52.68;100012.44;5094449;28;20060;-66
2023/08/13 09:48:31;;;;;;;0.70;0.70;;;;;;;27.15;52.77;100004.63;5094204;28;20383;-66
2023/08/13 09:51:04;;;;;;;0.55;0.55;;;;;;;27.31;52.89;100012.34;5094556;28;20032;-66
2023/08/13 09:53:35;;;;;;;1.08;0.98;;;;;;;27.39;52.60;100015.38;5093871;28;20044;-66
2023/08/13 09:56:05;;;;;;;0.52;0.52;;;;;;;27.50;52.31;100012.88;5094575;28;20075;-65
2023/08/13 09:58:34;;;;;;;1.00;0.93;;;;;;;27.44;50.87;100010.66;5094741;28;20052;-66
2023/08/13 10:01:03;;;;;;;;;;;;;;;27.47;50.52;100009.63;5094911;28;20058;-67
2023/08/13 10:03:35;;;;;;;0.57;0.57;;;;;;;27.50;50.78;99999.75;5094389;28;20007;-64
2023/08/13 10:06:07;;;;;;;0.47;0.47;;;;;;;27.57;50.79;99997.59;5094149;28;20497;-66
2023/08/13 10:08:37;;;;;;;0.38;0.38;;;;;;;27.73;51.08;99995.66;5094198;28;20036;-67
2023/08/13 10:11:06;;;;;;;0.60;0.60;;;;;;;27.74;50.92;99992.06;5094433;28;20462;-66
2023/08/13 10:13:36;;;;;;;2.67;1.13;;;;;;;27.66;50.11;99999.63;5094157;28;20048;-65
2023/08/13 10:16:06;;;;;;;2.15;1.30;;;;;;;27.64;50.31;99991.81;5094097;28;20498;-66
2023/08/13 10:18:36;;;;;;;1.85;0.85;;;;;;;27.73;50.41;99986.00;5094097;28;20086;-65
2023/08/13 10:21:06;;;;;;;1.08;0.95;;;;;;;27.92;50.71;99986.44;5093613;28;20055;-66
2023/08/13 10:23:36;;;;;;;0.40;0.40;;;;;;;28.04;50.27;99989.22;5093916;28;20101;-67
2023/08/13 10:26:05;;;;;;;0.75;0.75;;;;;;;28.11;49.65;99985.22;5094273;28;20078;-67
2023/08/13 10:28:34;;;;;;;;;;;;;;;28.05;48.83;99996.16;5094283;28;20551;-64
2023/08/13 10:31:20;;;;;;;0.50;0.50;;;;;;;27.93;48.64;99993.38;5093919;28;20416;-66
2023/08/13 10:33:59;;;;;;;0.60;0.60;;;;;;;27.95;48.38;99995.06;5093819;28;20040;-67
2023/08/13 10:36:44;;;;;;;1.13;0.85;;;;;;;28.04;48.67;99994.47;5093777;28;20050;-66
2023/08/13 10:39:34;;;;;;;1.52;0.88;;;;;;;28.06;47.85;99995.19;5093929;28;20072;-70
2023/08/13 10:42:06;;;;;;;0.60;0.60;;;;;;;28.08;48.94;100001.19;5094135;28;20120;-66
2023/08/13 10:44:41;;;;;;;0.55;0.52;;;;;;;28.25;48.97;99998.25;5093710;28;20125;-66
2023/08/13 10:47:10;;;;;;;0.93;0.80;;;;;;;28.39;48.32;99996.34;5093351;28;20131;-66
2023/08/13 10:49:42;;;;;;;0.65;0.60;;;;;;;28.46;48.16;99989.72;5093906;28;20058;-65
2023/08/13 10:52:14;;;;;;;0.50;0.50;;;;;;;28.50;47.92;99990.38;5093917;28;20510;-65
2023/08/13 10:54:44;;;;;;;0.60;0.60;;;;;;;28.53;47.75;99995.41;5094030;28;20498;-64
2023/08/13 10:57:12;;;;;;;1.20;1.10;;;;;;;28.57;47.14;99996.88;5093213;28;20044;-67
2023/08/13 10:59:42;;;;;;;0.50;0.50;;;;;;;28.61;47.08;99990.50;5092414;28;20040;-65
2023/08/13 11:02:12;;;;;;;;;;;;;;;28.66;47.26;99993.63;5093958;28;20391;-64
2023/08/13 11:04:43;;;;;;;0.47;0.47;;;;;;;28.76;46.85;99994.69;5093409;28;20366;-66
2023/08/13 11:07:14;;;;;;;0.50;0.50;;;;;;;28.81;46.24;99992.56;5093450;28;20055;-64
2023/08/13 11:09:43;;;;;;;15.00;1.15;;;;;;;28.86;46.05;99998.34;5092536;28;20048;-66
2023/08/13 11:12:12;;;;;;;0.50;0.50;;;;;;;29.00;46.15;99992.09;5093471;28;20075;-66
2023/08/13 11:14:42;;;;;;;0.30;0.30;;;;;;;29.08;45.59;99980.06;5093505;28;20036;-66
2023/08/13 11:17:11;;;;;;;;;;;;;;;29.12;45.43;99985.94;5093933;28;20042;-64
2023/08/13 11:19:40;;;;;;;0.65;0.65;;;;;;;29.08;44.62;99985.31;5093426;28;20447;-64
2023/08/13 11:22:08;;;;;;;1.95;1.38;;;;;;;29.06;44.63;99995.13;5093365;28;20490;-66
2023/08/13 11:24:40;;;;;;;0.55;0.55;;;;;;;29.03;43.96;99991.88;5093538;28;20066;-64
2023/08/13 11:27:09;;;;;;;0.90;0.80;;;;;;;29.12;44.03;99985.94;5093163;28;20036;-64
2023/08/13 11:29:38;;;;;;;0.60;0.60;;;;;;;29.30;43.67;99978.56;5093991;28;20040;-64
2023/08/13 11:32:07;;;;;;;0.75;0.75;;;;;;;29.34;43.07;99983.47;5094178;28;20032;-66
2023/08/13 11:34:35;;;;;;;;;;;;;;;29.48;43.19;99977.19;5096480;28;20044;-67
2023/08/13 11:37:04;;;;;;;1.75;0.65;;;;;;;29.65;43.19;99974.16;5090559;28;19926;-65
2023/08/13 11:39:33;;;;;;;0.40;0.40;;;;;;;29.59;43.07;99974.59;5097655;28;20036;-66
2023/08/13 11:42:11;;;;;;;0.82;0.80;;;;;;;29.55;43.30;99973.16;5095861;28;20089;-64